sensor_id;sensor_type;location;lat;lon;timestamp;P1;durP1;ratioP1;P2;durP2;ratioP2
12232;SDS011;6179;51.748;8.728;2023-02-11T00:04:09;43.60;;;16.77;;
12232;SDS011;6179;51.748;8.728;2023-02-11T00:10:10;49.60;;;18.73;;
12232;SDS011;6179;51.748;8.728;2023-02-11T00:16:15;40.53;;;16.80;;
12232;SDS011;6179;51.748;8.728;2023-02-11T00:22:19;49.83;;;15.87;;
12232;SDS011;6179;51.748;8.728;2023-02-11T00:28:20;48.03;;;17.40;;
12232;SDS011;6179;51.748;8.728;2023-02-11T00:34:20;38.33;;;15.90;;
12232;SDS011;6179;51.748;8.728;2023-02-11T00:40:21;37.63;;;16.20;;
12232;SDS011;6179;51.748;8.728;2023-02-11T00:46:22;40.53;;;16.30;;
12232;SDS011;6179;51.748;8.728;2023-02-11T00:52:23;33.60;;;14.37;;
12232;SDS011;6179;51.748;8.728;2023-02-11T00:58:24;34.83;;;12.40;;
12232;SDS011;6179;51.748;8.728;2023-02-11T01:04:26;39.53;;;17.87;;
12232;SDS011;6179;51.748;8.728;2023-02-11T01:10:27;40.13;;;14.60;;
12232;SDS011;6179;51.748;8.728;2023-02-11T01:16:28;29.73;;;14.17;;
12232;SDS011;6179;51.748;8.728;2023-02-11T01:22:28;52.53;;;16.70;;
12232;SDS011;6179;51.748;8.728;2023-02-11T01:28:30;45.10;;;14.67;;
12232;SDS011;6179;51.748;8.728;2023-02-11T01:34:31;51.40;;;15.90;;
12232;SDS011;6179;51.748;8.728;2023-02-11T01:40:32;30.70;;;15.87;;
12232;SDS011;6179;51.748;8.728;2023-02-11T01:46:35;28.47;;;12.80;;
12232;SDS011;6179;51.748;8.728;2023-02-11T01:52:37;37.63;;;15.10;;
12232;SDS011;6179;51.748;8.728;2023-02-11T01:58:40;43.07;;;17.13;;
12232;SDS011;6179;51.748;8.728;2023-02-11T02:04:51;41.37;;;16.00;;
12232;SDS011;6179;51.748;8.728;2023-02-11T02:10:58;35.40;;;16.40;;
12232;SDS011;6179;51.748;8.728;2023-02-11T02:16:59;53.07;;;18.43;;
12232;SDS011;6179;51.748;8.728;2023-02-11T02:36:14;71.00;;;17.10;;
12232;SDS011;6179;51.748;8.728;2023-02-11T02:42:30;40.67;;;16.57;;
12232;SDS011;6179;51.748;8.728;2023-02-11T02:48:32;40.60;;;19.97;;
12232;SDS011;6179;51.748;8.728;2023-02-11T03:13:43;45.20;;;18.83;;
12232;SDS011;6179;51.748;8.728;2023-02-11T03:19:47;41.10;;;17.07;;
12232;SDS011;6179;51.748;8.728;2023-02-11T03:25:52;44.27;;;18.90;;
12232;SDS011;6179;51.748;8.728;2023-02-11T03:32:09;38.10;;;16.07;;
12232;SDS011;6179;51.748;8.728;2023-02-11T03:38:26;52.03;;;18.07;;
12232;SDS011;6179;51.748;8.728;2023-02-11T03:44:37;55.43;;;17.17;;
12232;SDS011;6179;51.748;8.728;2023-02-11T03:50:45;29.00;;;13.70;;
12232;SDS011;6179;51.748;8.728;2023-02-11T03:56:51;39.07;;;14.83;;
12232;SDS011;6179;51.748;8.728;2023-02-11T04:02:55;33.10;;;15.53;;
12232;SDS011;6179;51.748;8.728;2023-02-11T04:08:56;33.60;;;15.87;;
12232;SDS011;6179;51.748;8.728;2023-02-11T04:14:57;32.67;;;14.37;;
12232;SDS011;6179;51.748;8.728;2023-02-11T04:20:57;33.97;;;14.07;;
12232;SDS011;6179;51.748;8.728;2023-02-11T04:26:58;49.57;;;16.80;;
12232;SDS011;6179;51.748;8.728;2023-02-11T04:32:59;39.17;;;16.00;;
12232;SDS011;6179;51.748;8.728;2023-02-11T04:39:00;38.57;;;16.40;;
12232;SDS011;6179;51.748;8.728;2023-02-11T04:45:01;58.43;;;18.47;;
12232;SDS011;6179;51.748;8.728;2023-02-11T04:51:02;50.37;;;21.37;;
12232;SDS011;6179;51.748;8.728;2023-02-11T04:57:03;49.93;;;18.73;;
12232;SDS011;6179;51.748;8.728;2023-02-11T05:03:04;44.17;;;18.57;;
12232;SDS011;6179;51.748;8.728;2023-02-11T05:09:05;50.93;;;16.60;;
12232;SDS011;6179;51.748;8.728;2023-02-11T05:15:07;42.60;;;17.77;;
12232;SDS011;6179;51.748;8.728;2023-02-11T05:21:08;44.07;;;17.40;;
12232;SDS011;6179;51.748;8.728;2023-02-11T05:27:13;47.53;;;18.97;;
12232;SDS011;6179;51.748;8.728;2023-02-11T05:33:14;47.60;;;18.60;;
12232;SDS011;6179;51.748;8.728;2023-02-11T05:39:15;59.83;;;19.33;;
12232;SDS011;6179;51.748;8.728;2023-02-11T05:45:15;39.23;;;17.80;;
12232;SDS011;6179;51.748;8.728;2023-02-11T05:51:16;54.70;;;18.80;;
12232;SDS011;6179;51.748;8.728;2023-02-11T05:57:17;50.97;;;18.20;;
12232;SDS011;6179;51.748;8.728;2023-02-11T06:03:18;58.03;;;16.77;;
12232;SDS011;6179;51.748;8.728;2023-02-11T06:09:19;43.90;;;18.90;;
12232;SDS011;6179;51.748;8.728;2023-02-11T06:15:20;52.70;;;18.63;;
12232;SDS011;6179;51.748;8.728;2023-02-11T06:21:21;44.43;;;16.60;;
12232;SDS011;6179;51.748;8.728;2023-02-11T06:27:21;66.30;;;17.50;;
12232;SDS011;6179;51.748;8.728;2023-02-11T06:33:22;53.50;;;19.30;;
12232;SDS011;6179;51.748;8.728;2023-02-11T06:39:23;50.87;;;19.07;;
12232;SDS011;6179;51.748;8.728;2023-02-11T06:45:24;59.57;;;18.43;;
12232;SDS011;6179;51.748;8.728;2023-02-11T06:51:25;47.87;;;18.37;;
12232;SDS011;6179;51.748;8.728;2023-02-11T06:57:26;38.13;;;15.97;;
12232;SDS011;6179;51.748;8.728;2023-02-11T07:03:27;43.67;;;18.30;;
12232;SDS011;6179;51.748;8.728;2023-02-11T07:09:28;63.30;;;18.03;;
12232;SDS011;6179;51.748;8.728;2023-02-11T07:15:28;43.00;;;19.10;;
12232;SDS011;6179;51.748;8.728;2023-02-11T07:21:29;61.73;;;21.50;;
12232;SDS011;6179;51.748;8.728;2023-02-11T07:27:30;57.87;;;19.40;;
12232;SDS011;6179;51.748;8.728;2023-02-11T07:33:31;44.43;;;20.00;;
12232;SDS011;6179;51.748;8.728;2023-02-11T07:39:35;49.37;;;19.57;;
12232;SDS011;6179;51.748;8.728;2023-02-11T07:45:37;54.13;;;19.20;;
12232;SDS011;6179;51.748;8.728;2023-02-11T07:51:38;55.63;;;20.70;;
12232;SDS011;6179;51.748;8.728;2023-02-11T07:57:39;42.13;;;16.73;;
12232;SDS011;6179;51.748;8.728;2023-02-11T08:03:40;42.30;;;17.10;;
12232;SDS011;6179;51.748;8.728;2023-02-11T08:09:41;56.30;;;21.60;;
12232;SDS011;6179;51.748;8.728;2023-02-11T08:15:42;59.27;;;21.17;;
12232;SDS011;6179;51.748;8.728;2023-02-11T08:21:44;60.53;;;20.60;;
12232;SDS011;6179;51.748;8.728;2023-02-11T08:27:45;58.13;;;20.33;;
12232;SDS011;6179;51.748;8.728;2023-02-11T08:33:45;48.57;;;19.90;;
12232;SDS011;6179;51.748;8.728;2023-02-11T08:39:47;58.83;;;19.27;;
12232;SDS011;6179;51.748;8.728;2023-02-11T08:45:49;65.53;;;21.87;;
12232;SDS011;6179;51.748;8.728;2023-02-11T08:51:49;71.77;;;22.10;;
12232;SDS011;6179;51.748;8.728;2023-02-11T08:57:50;58.60;;;24.00;;
12232;SDS011;6179;51.748;8.728;2023-02-11T09:03:51;64.73;;;21.37;;
12232;SDS011;6179;51.748;8.728;2023-02-11T09:09:52;77.13;;;23.23;;
12232;SDS011;6179;51.748;8.728;2023-02-11T09:15:53;68.13;;;21.93;;
12232;SDS011;6179;51.748;8.728;2023-02-11T09:21:54;66.53;;;20.83;;
12232;SDS011;6179;51.748;8.728;2023-02-11T09:27:55;66.47;;;20.80;;
12232;SDS011;6179;51.748;8.728;2023-02-11T09:33:57;64.20;;;24.40;;
12232;SDS011;6179;51.748;8.728;2023-02-11T09:40:01;77.07;;;24.77;;
12232;SDS011;6179;51.748;8.728;2023-02-11T09:46:03;65.53;;;20.73;;
12232;SDS011;6179;51.748;8.728;2023-02-11T09:52:12;78.57;;;22.00;;
12232;SDS011;6179;51.748;8.728;2023-02-11T09:58:33;75.20;;;23.40;;
12232;SDS011;6179;51.748;8.728;2023-02-11T10:04:43;65.93;;;19.57;;
12232;SDS011;6179;51.748;8.728;2023-02-11T10:10:57;69.63;;;22.13;;
12232;SDS011;6179;51.748;8.728;2023-02-11T10:23:59;73.27;;;23.40;;
12232;SDS011;6179;51.748;8.728;2023-02-11T10:30:15;71.83;;;20.60;;
12232;SDS011;6179;51.748;8.728;2023-02-11T10:36:21;85.93;;;22.37;;
12232;SDS011;6179;51.748;8.728;2023-02-11T10:42:28;81.60;;;23.40;;
12232;SDS011;6179;51.748;8.728;2023-02-11T11:01:20;75.20;;;25.50;;
12232;SDS011;6179;51.748;8.728;2023-02-11T11:07:22;96.10;;;28.87;;
12232;SDS011;6179;51.748;8.728;2023-02-11T11:14:12;102.63;;;28.63;;
12232;SDS011;6179;51.748;8.728;2023-02-11T11:20:12;96.17;;;26.43;;
12232;SDS011;6179;51.748;8.728;2023-02-11T11:26:18;87.20;;;26.13;;
12232;SDS011;6179;51.748;8.728;2023-02-11T11:32:21;78.23;;;23.07;;
12232;SDS011;6179;51.748;8.728;2023-02-11T11:38:31;83.40;;;30.27;;
12232;SDS011;6179;51.748;8.728;2023-02-11T11:44:35;79.30;;;26.57;;
12232;SDS011;6179;51.748;8.728;2023-02-11T11:50:39;91.97;;;25.93;;
12232;SDS011;6179;51.748;8.728;2023-02-11T11:57:04;101.47;;;29.00;;
12232;SDS011;6179;51.748;8.728;2023-02-11T12:30:15;93.80;;;28.17;;
12232;SDS011;6179;51.748;8.728;2023-02-11T12:36:37;98.83;;;26.47;;
12232;SDS011;6179;51.748;8.728;2023-02-11T12:55:59;90.50;;;25.90;;
12232;SDS011;6179;51.748;8.728;2023-02-11T13:09:02;72.77;;;24.17;;
12232;SDS011;6179;51.748;8.728;2023-02-11T13:15:12;92.83;;;27.23;;
12232;SDS011;6179;51.748;8.728;2023-02-11T13:33:50;107.43;;;29.13;;
12232;SDS011;6179;51.748;8.728;2023-02-11T13:40:01;118.90;;;27.13;;
12232;SDS011;6179;51.748;8.728;2023-02-11T13:46:12;91.83;;;28.90;;
12232;SDS011;6179;51.748;8.728;2023-02-11T13:52:24;101.57;;;28.10;;
12232;SDS011;6179;51.748;8.728;2023-02-11T13:58:35;84.43;;;27.80;;
12232;SDS011;6179;51.748;8.728;2023-02-11T14:17:28;87.57;;;25.50;;
12232;SDS011;6179;51.748;8.728;2023-02-11T14:23:33;86.17;;;26.70;;
12232;SDS011;6179;51.748;8.728;2023-02-11T14:36:04;98.50;;;29.70;;
12232;SDS011;6179;51.748;8.728;2023-02-11T14:42:42;85.07;;;26.20;;
12232;SDS011;6179;51.748;8.728;2023-02-11T14:48:44;84.40;;;29.00;;
12232;SDS011;6179;51.748;8.728;2023-02-11T14:54:49;73.90;;;25.93;;
12232;SDS011;6179;51.748;8.728;2023-02-11T15:06:58;93.30;;;27.00;;
12232;SDS011;6179;51.748;8.728;2023-02-11T15:13:05;70.07;;;25.97;;
12232;SDS011;6179;51.748;8.728;2023-02-11T15:19:13;67.13;;;23.83;;
12232;SDS011;6179;51.748;8.728;2023-02-11T15:25:25;79.63;;;23.67;;
12232;SDS011;6179;51.748;8.728;2023-02-11T15:31:27;69.70;;;24.13;;
12232;SDS011;6179;51.748;8.728;2023-02-11T15:37:28;83.73;;;26.90;;
12232;SDS011;6179;51.748;8.728;2023-02-11T15:43:45;89.10;;;27.07;;
12232;SDS011;6179;51.748;8.728;2023-02-11T15:49:51;73.67;;;25.23;;
12232;SDS011;6179;51.748;8.728;2023-02-11T15:55:53;65.37;;;22.63;;
12232;SDS011;6179;51.748;8.728;2023-02-11T16:02:30;100.17;;;27.67;;
12232;SDS011;6179;51.748;8.728;2023-02-11T16:08:32;84.83;;;26.00;;
12232;SDS011;6179;51.748;8.728;2023-02-11T16:14:34;91.53;;;26.67;;
12232;SDS011;6179;51.748;8.728;2023-02-11T16:20:38;75.90;;;27.73;;
12232;SDS011;6179;51.748;8.728;2023-02-11T16:26:40;81.53;;;25.63;;
12232;SDS011;6179;51.748;8.728;2023-02-11T16:32:47;77.03;;;23.70;;
12232;SDS011;6179;51.748;8.728;2023-02-11T16:38:48;97.63;;;28.67;;
12232;SDS011;6179;51.748;8.728;2023-02-11T16:44:50;74.63;;;24.97;;
12232;SDS011;6179;51.748;8.728;2023-02-11T16:50:51;105.83;;;29.77;;
12232;SDS011;6179;51.748;8.728;2023-02-11T16:56:52;78.20;;;26.90;;
12232;SDS011;6179;51.748;8.728;2023-02-11T17:02:53;93.07;;;28.40;;
12232;SDS011;6179;51.748;8.728;2023-02-11T17:08:53;76.27;;;25.87;;
12232;SDS011;6179;51.748;8.728;2023-02-11T17:14:54;73.50;;;27.20;;
12232;SDS011;6179;51.748;8.728;2023-02-11T17:20:55;88.73;;;28.50;;
12232;SDS011;6179;51.748;8.728;2023-02-11T17:26:56;89.27;;;23.93;;
12232;SDS011;6179;51.748;8.728;2023-02-11T17:32:57;97.20;;;31.53;;
12232;SDS011;6179;51.748;8.728;2023-02-11T17:38:59;78.50;;;25.60;;
12232;SDS011;6179;51.748;8.728;2023-02-11T17:45:00;84.17;;;28.27;;
12232;SDS011;6179;51.748;8.728;2023-02-11T17:51:01;81.20;;;26.23;;
12232;SDS011;6179;51.748;8.728;2023-02-11T17:57:01;68.17;;;21.60;;
12232;SDS011;6179;51.748;8.728;2023-02-11T18:03:02;65.60;;;25.13;;
12232;SDS011;6179;51.748;8.728;2023-02-11T18:09:03;85.03;;;26.13;;
12232;SDS011;6179;51.748;8.728;2023-02-11T18:15:05;78.57;;;26.40;;
12232;SDS011;6179;51.748;8.728;2023-02-11T18:21:06;97.50;;;27.93;;
12232;SDS011;6179;51.748;8.728;2023-02-11T18:27:07;85.63;;;26.30;;
12232;SDS011;6179;51.748;8.728;2023-02-11T18:33:08;70.03;;;25.70;;
12232;SDS011;6179;51.748;8.728;2023-02-11T18:39:13;86.40;;;23.80;;
12232;SDS011;6179;51.748;8.728;2023-02-11T18:45:13;71.33;;;21.37;;
12232;SDS011;6179;51.748;8.728;2023-02-11T18:51:15;98.83;;;27.63;;
12232;SDS011;6179;51.748;8.728;2023-02-11T18:57:17;64.30;;;23.33;;
12232;SDS011;6179;51.748;8.728;2023-02-11T19:03:18;65.17;;;23.97;;
12232;SDS011;6179;51.748;8.728;2023-02-11T19:09:19;67.77;;;22.00;;
12232;SDS011;6179;51.748;8.728;2023-02-11T19:15:20;77.03;;;24.20;;
12232;SDS011;6179;51.748;8.728;2023-02-11T19:21:22;79.30;;;23.80;;
12232;SDS011;6179;51.748;8.728;2023-02-11T19:27:22;82.07;;;23.50;;
12232;SDS011;6179;51.748;8.728;2023-02-11T19:33:23;70.40;;;24.80;;
12232;SDS011;6179;51.748;8.728;2023-02-11T19:39:24;61.13;;;20.50;;
12232;SDS011;6179;51.748;8.728;2023-02-11T19:45:25;58.00;;;20.07;;
12232;SDS011;6179;51.748;8.728;2023-02-11T19:51:26;75.00;;;23.33;;
12232;SDS011;6179;51.748;8.728;2023-02-11T19:57:29;68.53;;;24.47;;
12232;SDS011;6179;51.748;8.728;2023-02-11T20:03:29;73.40;;;24.03;;
12232;SDS011;6179;51.748;8.728;2023-02-11T20:09:30;67.57;;;23.97;;
12232;SDS011;6179;51.748;8.728;2023-02-11T20:15:31;87.57;;;24.20;;
12232;SDS011;6179;51.748;8.728;2023-02-11T20:21:32;87.03;;;24.17;;
12232;SDS011;6179;51.748;8.728;2023-02-11T20:27:33;71.43;;;26.07;;
12232;SDS011;6179;51.748;8.728;2023-02-11T20:33:33;74.17;;;23.73;;
12232;SDS011;6179;51.748;8.728;2023-02-11T20:39:34;76.63;;;24.93;;
12232;SDS011;6179;51.748;8.728;2023-02-11T20:45:36;69.60;;;24.10;;
12232;SDS011;6179;51.748;8.728;2023-02-11T20:51:37;76.87;;;24.83;;
12232;SDS011;6179;51.748;8.728;2023-02-11T20:57:38;60.50;;;22.70;;
12232;SDS011;6179;51.748;8.728;2023-02-11T21:03:39;84.50;;;25.30;;
12232;SDS011;6179;51.748;8.728;2023-02-11T21:09:42;60.87;;;23.07;;
12232;SDS011;6179;51.748;8.728;2023-02-11T21:15:43;71.47;;;25.70;;
12232;SDS011;6179;51.748;8.728;2023-02-11T21:21:44;74.83;;;23.87;;
12232;SDS011;6179;51.748;8.728;2023-02-11T21:27:45;71.30;;;23.27;;
12232;SDS011;6179;51.748;8.728;2023-02-11T21:33:46;67.77;;;25.67;;
12232;SDS011;6179;51.748;8.728;2023-02-11T21:39:48;63.97;;;23.80;;
12232;SDS011;6179;51.748;8.728;2023-02-11T21:45:49;76.07;;;26.27;;
12232;SDS011;6179;51.748;8.728;2023-02-11T21:51:52;86.73;;;26.17;;
12232;SDS011;6179;51.748;8.728;2023-02-11T21:57:54;75.37;;;24.53;;
12232;SDS011;6179;51.748;8.728;2023-02-11T22:03:55;80.33;;;26.47;;
12232;SDS011;6179;51.748;8.728;2023-02-11T22:09:57;72.77;;;24.60;;
12232;SDS011;6179;51.748;8.728;2023-02-11T22:15:58;79.87;;;27.00;;
12232;SDS011;6179;51.748;8.728;2023-02-11T22:22:01;90.60;;;26.10;;
12232;SDS011;6179;51.748;8.728;2023-02-11T22:28:02;61.07;;;19.67;;
12232;SDS011;6179;51.748;8.728;2023-02-11T22:34:03;84.33;;;26.30;;
12232;SDS011;6179;51.748;8.728;2023-02-11T22:40:05;74.87;;;26.27;;
12232;SDS011;6179;51.748;8.728;2023-02-11T22:46:06;89.73;;;28.73;;
12232;SDS011;6179;51.748;8.728;2023-02-11T22:52:09;73.50;;;26.37;;
12232;SDS011;6179;51.748;8.728;2023-02-11T22:58:10;77.37;;;25.87;;
12232;SDS011;6179;51.748;8.728;2023-02-11T23:04:12;84.67;;;27.63;;
12232;SDS011;6179;51.748;8.728;2023-02-11T23:10:15;88.80;;;28.33;;
12232;SDS011;6179;51.748;8.728;2023-02-11T23:16:16;105.00;;;32.40;;
12232;SDS011;6179;51.748;8.728;2023-02-11T23:22:21;89.90;;;30.03;;
12232;SDS011;6179;51.748;8.728;2023-02-11T23:28:22;75.60;;;26.23;;
12232;SDS011;6179;51.748;8.728;2023-02-11T23:34:23;87.77;;;27.67;;
12232;SDS011;6179;51.748;8.728;2023-02-11T23:40:24;85.17;;;25.70;;
12232;SDS011;6179;51.748;8.728;2023-02-11T23:46:26;71.43;;;25.90;;
12232;SDS011;6179;51.748;8.728;2023-02-11T23:52:27;66.13;;;25.80;;
12232;SDS011;6179;51.748;8.728;2023-02-11T23:58:28;78.50;;;28.73;;
